Time,TemperatureF,DewpointF,PressureIn,WindDirection,WindDirectionDegrees,WindSpeedMPH,WindSpeedGustMPH,Humidity,HourlyPrecipIn,Conditions,Clouds,dailyrainin,SoftwareType,DateUTC
2014-08-22 00:01:00,68.0,68.0,30.03,NNW,337,17.0,26.0,100,0.08,,---,0.10,VWS V14.01,2014-08-22 04:01:00,
2014-08-22 00:02:00,67.0,67.0,30.08,NW,315,11.0,26.0,100,0.12,,---,0.13,VWS V14.01,2014-08-22 04:02:00,
2014-08-22 00:07:00,66.0,66.0,30.08,NNW,337,10.0,18.0,100,0.30,,---,0.28,VWS V14.01,2014-08-22 04:07:00,
2014-08-22 00:12:00,66.0,66.0,30.07,West,270,5.0,10.0,100,0.34,,---,0.32,VWS V14.01,2014-08-22 04:12:00,
2014-08-22 00:17:00,66.0,66.0,30.07,West,270,7.0,9.0,100,0.35,,---,0.33,VWS V14.01,2014-08-22 04:17:00,
2014-08-22 00:22:00,66.0,66.0,30.07,SSW,202,4.0,9.0,100,0.36,,---,0.34,VWS V14.01,2014-08-22 04:22:00,
2014-08-22 00:27:00,66.0,66.0,30.07,SSW,202,2.0,7.0,100,0.38,,---,0.36,VWS V14.01,2014-08-22 04:27:00,
2014-08-22 00:32:00,66.0,66.0,30.07,WSW,247,2.0,6.0,100,0.39,,---,0.37,VWS V14.01,2014-08-22 04:32:00,
2014-08-22 00:37:00,66.0,66.0,30.07,SW,225,2.0,9.0,100,0.40,,---,0.38,VWS V14.01,2014-08-22 04:37:00,
2014-08-22 00:43:00,66.0,66.0,30.07,SW,225,10.0,10.0,100,0.41,,---,0.40,VWS V14.01,2014-08-22 04:43:00,
2014-08-22 00:48:00,66.0,66.0,30.07,SW,225,4.0,10.0,100,0.43,,---,0.41,VWS V14.01,2014-08-22 04:48:00,
2014-08-22 00:53:00,66.0,66.0,30.07,WSW,247,4.0,9.0,100,0.44,,---,0.42,VWS V14.01,2014-08-22 04:53:00,
2014-08-22 00:58:00,66.0,66.0,30.07,WSW,247,4.0,8.0,100,0.46,,---,0.44,VWS V14.01,2014-08-22 04:58:00,
2014-08-22 01:03:00,66.0,66.0,30.07,WSW,247,3.0,7.0,100,0.47,,---,0.45,VWS V14.01,2014-08-22 05:03:00,
2014-08-22 01:08:00,66.0,66.0,30.07,WNW,292,5.0,8.0,100,0.33,,---,0.46,VWS V14.01,2014-08-22 05:08:00,
2014-08-22 01:13:00,66.0,66.0,30.06,WSW,247,7.0,10.0,100,0.20,,---,0.48,VWS V14.01,2014-08-22 05:13:00,
2014-08-22 01:18:00,66.0,66.0,30.06,WSW,247,4.0,10.0,100,0.17,,---,0.50,VWS V14.01,2014-08-22 05:18:00,
2014-08-22 01:23:00,66.0,66.0,30.06,WSW,247,5.0,10.0,100,0.18,,---,0.51,VWS V14.01,2014-08-22 05:23:00,
2014-08-22 01:28:00,66.0,66.0,30.06,WSW,247,7.0,8.0,100,0.18,,---,0.52,VWS V14.01,2014-08-22 05:28:00,
2014-08-22 01:33:00,66.0,66.0,30.05,WSW,247,12.0,12.0,100,0.17,,---,0.53,VWS V14.01,2014-08-22 05:33:00,
2014-08-22 01:38:00,66.0,66.0,30.05,SSE,157,4.0,12.0,100,0.17,,---,0.54,VWS V14.01,2014-08-22 05:38:00,
2014-08-22 01:43:00,66.0,66.0,30.04,South,180,4.0,10.0,100,0.16,,---,0.54,VWS V14.01,2014-08-22 05:43:00,
2014-08-22 01:48:00,66.0,66.0,30.04,SW,225,4.0,10.0,100,0.15,,---,0.54,VWS V14.01,2014-08-22 05:48:00,
2014-08-22 01:53:00,66.0,66.0,30.02,WSW,247,5.0,8.0,100,0.13,,---,0.54,VWS V14.01,2014-08-22 05:53:00,
2014-08-22 01:58:00,66.0,66.0,30.02,North,360,8.0,11.0,100,0.12,,---,0.54,VWS V14.01,2014-08-22 05:58:00,
2014-08-22 02:03:00,66.0,66.0,30.04,NW,315,9.0,15.0,100,0.11,,---,0.55,VWS V14.01,2014-08-22 06:03:00,
2014-08-22 02:08:00,66.0,66.0,30.04,NW,315,4.0,5.0,100,0.09,,---,0.55,VWS V14.01,2014-08-22 06:08:00,
2014-08-22 02:13:00,66.0,66.0,30.03,NNW,337,4.0,4.0,100,0.07,,---,0.55,VWS V14.01,2014-08-22 06:13:00,
2014-08-22 02:18:00,66.0,66.0,30.03,NNW,337,2.0,2.0,100,0.07,,---,0.56,VWS V14.01,2014-08-22 06:18:00,
2014-08-22 02:23:00,66.0,66.0,30.02,NW,315,0.0,0.0,100,0.05,,---,0.56,VWS V14.01,2014-08-22 06:23:00,
2014-08-22 02:28:00,66.0,66.0,30.02,SSE,157,3.0,4.0,100,0.04,,---,0.56,VWS V14.01,2014-08-22 06:28:00,
2014-08-22 02:33:00,66.0,66.0,30.01,SSE,157,2.0,2.0,100,0.03,,---,0.56,VWS V14.01,2014-08-22 06:33:00,
2014-08-22 02:39:00,66.0,66.0,30.01,SSE,157,4.0,5.0,100,0.02,,---,0.56,VWS V14.01,2014-08-22 06:39:00,
2014-08-22 02:44:00,66.0,66.0,30.02,West,270,4.0,5.0,100,0.02,,---,0.56,VWS V14.01,2014-08-22 06:44:00,
2014-08-22 02:49:00,66.0,66.0,30.02,WSW,247,5.0,6.0,100,0.02,,---,0.56,VWS V14.01,2014-08-22 06:49:00,
2014-08-22 02:54:00,66.0,66.0,30.01,WSW,247,4.0,5.0,100,0.02,,---,0.56,VWS V14.01,2014-08-22 06:54:00,
2014-08-22 02:59:00,66.0,66.0,30.01,West,270,5.0,8.0,100,0.02,,---,0.56,VWS V14.01,2014-08-22 06:59:00,
2014-08-22 03:04:00,66.0,66.0,30.01,SW,225,2.0,4.0,100,0.01,,---,0.56,VWS V14.01,2014-08-22 07:04:00,
2014-08-22 03:09:00,66.0,66.0,30.01,SSE,157,2.0,4.0,100,0.02,,---,0.57,VWS V14.01,2014-08-22 07:09:00,
2014-08-22 03:14:00,66.0,66.0,30.00,SSE,157,0.0,0.0,100,0.02,,---,0.57,VWS V14.01,2014-08-22 07:14:00,
2014-08-22 03:19:00,66.0,66.0,30.00,SSE,157,0.0,0.0,100,0.02,,---,0.58,VWS V14.01,2014-08-22 07:19:00,
2014-08-22 03:24:00,66.0,66.0,30.00,SSE,157,0.0,0.0,100,0.02,,---,0.58,VWS V14.01,2014-08-22 07:24:00,